createdAt,value
2022-09-27T00:01:09.628Z,95973.75
2022-09-27T00:03:36.809Z,95960.63
2022-09-27T00:06:08.875Z,95965.47
2022-09-27T00:08:37.301Z,95966.63
2022-09-27T00:11:15.067Z,95964.38
2022-09-27T00:13:41.898Z,95961.44
2022-09-27T00:16:10.553Z,95957.19
2022-09-27T00:18:37.413Z,95946.66
2022-09-27T00:21:16.151Z,95948.91
2022-09-27T00:23:43.219Z,95940.78
2022-09-27T00:26:14.035Z,95942.22
2022-09-27T00:28:41.678Z,95930.50
2022-09-27T00:31:34.851Z,95928.75
2022-09-27T00:34:05.081Z,95931.97
2022-09-27T00:36:33.741Z,95929.38
2022-09-27T00:39:01.577Z,95925.00
2022-09-27T00:41:34.301Z,95920.94
2022-09-27T00:44:05.663Z,95912.97
2022-09-27T00:46:50.282Z,95909.38
2022-09-27T00:49:31.065Z,95904.97
2022-09-27T00:52:07.743Z,95906.78
2022-09-27T00:54:41.089Z,95904.00
2022-09-27T00:57:09.260Z,95896.19
2022-09-27T00:59:53.998Z,95900.91
2022-09-27T01:02:21.229Z,95898.84
2022-09-27T01:04:49.714Z,95900.94
2022-09-27T01:07:16.822Z,95904.69
2022-09-27T01:09:43.912Z,95886.78
2022-09-27T01:12:38.187Z,95888.09
2022-09-27T01:15:25.851Z,95881.56
2022-09-27T01:18:14.280Z,95879.63
2022-09-27T01:21:27.589Z,95882.91
2022-09-27T01:24:23.935Z,95879.78
2022-09-27T01:27:33.274Z,95867.28
2022-09-27T01:30:45.200Z,95881.75
2022-09-27T01:33:42.463Z,95885.31
2022-09-27T01:36:28.285Z,95883.72
2022-09-27T01:39:05.786Z,95875.44
2022-09-27T01:41:47.236Z,95874.63
2022-09-27T01:44:38.777Z,95864.09
2022-09-27T01:47:34.845Z,95871.88
2022-09-27T01:50:25.383Z,95869.13
2022-09-27T01:53:06.983Z,95862.28
2022-09-27T01:55:38.263Z,95858.25
2022-09-27T01:58:14.468Z,95859.22
2022-09-27T02:00:48.009Z,95857.44
2022-09-27T02:03:28.615Z,95842.16
2022-09-27T02:06:08.322Z,95857.59
2022-09-27T02:08:46.374Z,95845.41
2022-09-27T02:11:15.202Z,95848.47
2022-09-27T02:14:02.646Z,95836.78
2022-09-27T02:16:59.318Z,95843.28
2022-09-27T02:19:32.307Z,95838.88
2022-09-27T02:22:35.510Z,95836.47
2022-09-27T02:25:13.108Z,95837.78
2022-09-27T02:28:17.704Z,95829.81
2022-09-27T02:30:45.330Z,95828.50
2022-09-27T02:33:12.223Z,95824.91
2022-09-27T02:35:38.959Z,95825.88
2022-09-27T02:38:07.625Z,95828.34
2022-09-27T02:40:44.338Z,95830.78
2022-09-27T02:43:14.668Z,95827.53
2022-09-27T02:45:59.808Z,95813.91
2022-09-27T02:49:02.077Z,95819.75
2022-09-27T02:51:50.159Z,95814.72
2022-09-27T02:54:42.058Z,95815.38
2022-09-27T02:57:56.070Z,95811.28
2022-09-27T03:00:36.520Z,95807.72
2022-09-27T03:03:26.255Z,95805.28
2022-09-27T03:06:03.667Z,95804.19
2022-09-27T03:08:30.771Z,95806.59
2022-09-27T03:10:57.543Z,95802.38
2022-09-27T03:13:24.463Z,95806.59
2022-09-27T03:15:51.209Z,95804.00
2022-09-27T03:18:17.984Z,95800.94
2022-09-27T03:20:44.744Z,95809.06
2022-09-27T03:23:11.971Z,95803.53
2022-09-27T03:25:38.870Z,95800.75
2022-09-27T03:28:05.931Z,95804.97
2022-09-27T03:30:32.878Z,95804.50
2022-09-27T03:32:59.615Z,95803.03
2022-09-27T03:35:26.381Z,95801.56
2022-09-27T03:37:53.187Z,95793.63
2022-09-27T03:40:19.985Z,95802.72
2022-09-27T03:42:49.808Z,95789.91
2022-09-27T03:45:18.172Z,95797.00
2022-09-27T03:47:45.017Z,95792.50
2022-09-27T03:50:12.678Z,95792.97
2022-09-27T03:52:39.495Z,95786.78
2022-09-27T03:55:07.099Z,95794.59
2022-09-27T03:57:33.847Z,95788.41
2022-09-27T04:00:00.923Z,95784.03
2022-09-27T04:02:28.687Z,95786.63
2022-09-27T04:04:55.441Z,95789.88
2022-09-27T04:07:23.505Z,95791.50
2022-09-27T04:09:50.234Z,95794.59
2022-09-27T04:12:17.211Z,95800.59
2022-09-27T04:14:43.981Z,95794.59
2022-09-27T04:17:10.775Z,95790.69
2022-09-27T04:19:37.709Z,95791.66
2022-09-27T04:22:04.439Z,95802.56
2022-09-27T04:24:31.724Z,95796.22
2022-09-27T04:26:58.597Z,95798.63
2022-09-27T04:29:25.720Z,95787.44
2022-09-27T04:31:52.470Z,95790.03
2022-09-27T04:34:43.217Z,95800.75
2022-09-27T04:37:12.505Z,95799.16
2022-09-27T04:39:39.677Z,95783.56
2022-09-27T04:42:06.486Z,95792.31
2022-09-27T04:44:33.237Z,95789.72
2022-09-27T04:47:00.039Z,95784.53
2022-09-27T04:49:26.843Z,95789.38
2022-09-27T04:51:53.621Z,95794.41
2022-09-27T04:54:20.572Z,95801.41
2022-09-27T04:56:48.730Z,95799.94
2022-09-27T04:59:16.094Z,95817.50
2022-09-27T05:01:43.004Z,95820.75
2022-09-27T05:04:10.112Z,95831.78
2022-09-27T05:06:36.852Z,95830.63
2022-09-27T05:09:03.759Z,95827.22
2022-09-27T05:11:31.009Z,95831.63
2022-09-27T05:13:57.782Z,95838.78
2022-09-27T05:16:25.004Z,95838.94
2022-09-27T05:18:51.749Z,95844.31
2022-09-27T05:21:18.464Z,95843.97
2022-09-27T05:23:47.853Z,95846.88
2022-09-27T05:26:14.971Z,95860.22
2022-09-27T05:28:43.902Z,95856.31
2022-09-27T05:31:13.155Z,95863.44
2022-09-27T05:33:41.011Z,95870.59
2022-09-27T05:36:09.128Z,95861.81
2022-09-27T05:38:36.579Z,95859.53
2022-09-27T05:41:04.032Z,95858.06
2022-09-27T05:43:30.971Z,95872.69
2022-09-27T05:45:58.592Z,95870.09
2022-09-27T05:48:26.147Z,95874.63
2022-09-27T05:50:52.896Z,95879.19
2022-09-27T05:53:19.692Z,95877.56
2022-09-27T05:55:46.446Z,95880.16
2022-09-27T05:58:16.106Z,95885.50
2022-09-27T06:00:43.846Z,95882.25
2022-09-27T06:03:13.175Z,95888.09
2022-09-27T06:05:40.643Z,95890.22
2022-09-27T06:08:13.476Z,95884.56
2022-09-27T06:10:41.597Z,95895.59
2022-09-27T06:13:15.258Z,95886.50
2022-09-27T06:15:44.710Z,95891.06
2022-09-27T06:18:16.140Z,95894.78
2022-09-27T06:20:43.092Z,95896.06
2022-09-27T06:23:15.840Z,95894.44
2022-09-27T06:25:43.110Z,95901.09
2022-09-27T06:28:12.303Z,95895.28
2022-09-27T06:30:45.157Z,95894.94
2022-09-27T06:33:20.781Z,95899.16
2022-09-27T06:35:49.907Z,95897.22
2022-09-27T06:38:21.073Z,95897.88
2022-09-27T06:40:48.059Z,95905.19
2022-09-27T06:43:18.267Z,95908.94
2022-09-27T06:45:45.307Z,95907.63
2022-09-27T06:48:15.349Z,95914.78
2022-09-27T06:50:44.672Z,95919.97
2022-09-27T06:53:14.647Z,95920.94
2022-09-27T06:55:42.002Z,95910.72
2022-09-27T06:58:30.755Z,95918.97
2022-09-27T07:00:58.597Z,95925.50
2022-09-27T07:03:35.582Z,95937.19
2022-09-27T07:06:07.315Z,95945.31
2022-09-27T07:08:35.738Z,95945.81
2022-09-27T07:11:06.361Z,95947.94
2022-09-27T07:13:34.816Z,95954.09
2022-09-27T07:16:01.986Z,95959.94
2022-09-27T07:18:29.199Z,95967.09
2022-09-27T07:21:00.176Z,95975.88
2022-09-27T07:23:27.572Z,95980.41
2022-09-27T07:25:54.673Z,95990.00
2022-09-27T07:28:22.289Z,95996.97
2022-09-27T07:30:49.411Z,96003.13
2022-09-27T07:33:16.191Z,96004.75
2022-09-27T07:35:43.673Z,96005.41
2022-09-27T07:38:16.545Z,96013.88
2022-09-27T07:40:43.966Z,96014.56
2022-09-27T07:43:12.089Z,96019.94
2022-09-27T07:45:39.554Z,96016.72
2022-09-27T07:48:14.363Z,96033.47
2022-09-27T07:50:41.282Z,96015.25
2022-09-27T07:53:12.495Z,96025.00
2022-09-27T07:55:40.030Z,96019.16
2022-09-27T07:58:12.011Z,96032.50
2022-09-27T08:00:40.657Z,96029.25
2022-09-27T08:03:11.594Z,96034.63
2022-09-27T08:05:38.611Z,96035.78
2022-09-27T08:08:05.674Z,96040.47
2022-09-27T08:10:34.286Z,96048.09
2022-09-27T08:13:03.437Z,96052.50
2022-09-27T08:15:33.003Z,96059.97
2022-09-27T08:17:59.785Z,96048.91
2022-09-27T08:20:26.517Z,96054.28
2022-09-27T08:22:53.390Z,96054.00
2022-09-27T08:25:22.438Z,96057.22
2022-09-27T08:27:57.863Z,96065.69
2022-09-27T08:30:26.285Z,96054.31
2022-09-27T08:32:57.903Z,96061.09
2022-09-27T08:35:25.308Z,96063.66
2022-09-27T08:37:59.628Z,96082.41
2022-09-27T08:40:43.793Z,96084.63
2022-09-27T08:43:22.888Z,96081.56
2022-09-27T08:46:30.818Z,96087.16
2022-09-27T08:49:10.917Z,96074.38
2022-09-27T08:51:39.758Z,96089.41
2022-09-27T08:54:18.965Z,96086.81
2022-09-27T08:56:49.290Z,96091.69
2022-09-27T08:59:30.143Z,96084.19
2022-09-27T09:01:57.121Z,96086.31
2022-09-27T09:04:34.318Z,96093.31
2022-09-27T09:07:22.463Z,96082.88
2022-09-27T09:11:04.025Z,96079.81
2022-09-27T09:13:54.415Z,96077.84
2022-09-27T09:16:58.426Z,96095.31
2022-09-27T09:19:58.303Z,96100.50
2022-09-27T09:22:58.679Z,96105.56
2022-09-27T09:25:45.260Z,96113.97
2022-09-27T09:28:11.921Z,96124.38
2022-09-27T09:31:25.177Z,96112.47
2022-09-27T09:34:15.500Z,96109.53
2022-09-27T09:36:51.740Z,96115.88
2022-09-27T09:39:34.518Z,96123.56
2022-09-27T09:42:40.428Z,96128.16
2022-09-27T09:45:25.973Z,96128.50
2022-09-27T09:48:27.505Z,96120.88
2022-09-27T09:51:01.124Z,96117.94
2022-09-27T09:53:39.856Z,96120.03
2022-09-27T09:56:24.507Z,96114.19
2022-09-27T09:58:59.302Z,96109.78
2022-09-27T10:01:45.172Z,96121.69
2022-09-27T10:04:21.203Z,96120.69
2022-09-27T10:06:49.775Z,96115.50
2022-09-27T10:09:23.947Z,96129.00
2022-09-27T10:11:50.888Z,96136.31
2022-09-27T10:14:21.836Z,96141.16
2022-09-27T10:16:57.355Z,96131.38
2022-09-27T10:19:34.209Z,96132.31
2022-09-27T10:22:31.063Z,96136.38
2022-09-27T10:25:08.131Z,96138.47
2022-09-27T10:27:55.947Z,96130.97
2022-09-27T10:30:33.870Z,96136.81
2022-09-27T10:33:07.721Z,96133.97
2022-09-27T10:35:41.282Z,96138.75
2022-09-27T10:38:21.639Z,96139.56
2022-09-27T10:40:55.271Z,96128.81
2022-09-27T10:43:33.938Z,96123.72
2022-09-27T10:46:21.089Z,96127.94
2022-09-27T10:48:48.012Z,96125.81
2022-09-27T10:51:31.503Z,96129.88
2022-09-27T10:54:00.283Z,96127.59
2022-09-27T10:56:34.793Z,96127.66
2022-09-27T10:59:04.085Z,96130.09
2022-09-27T11:01:51.747Z,96135.66
2022-09-27T11:04:28.568Z,96136.50
2022-09-27T11:07:23.220Z,96135.81
2022-09-27T11:10:02.838Z,96144.78
2022-09-27T11:12:31.949Z,96144.44
2022-09-27T11:15:06.035Z,96152.25
2022-09-27T11:17:57.221Z,96160.88
2022-09-27T11:21:08.730Z,96154.53
2022-09-27T11:24:09.576Z,96154.84
2022-09-27T11:27:26.244Z,96154.41
2022-09-27T11:30:14.393Z,96153.88
2022-09-27T11:32:46.390Z,96139.91
2022-09-27T11:35:47.010Z,96131.75
2022-09-27T11:38:51.651Z,96130.78
2022-09-27T11:41:41.318Z,96134.69
2022-09-27T11:44:38.232Z,96130.75
2022-09-27T11:47:25.792Z,96144.09
2022-09-27T11:50:16.405Z,96155.34
2022-09-27T11:52:58.286Z,96133.44
2022-09-27T11:56:05.633Z,96133.41
2022-09-27T11:59:33.990Z,96134.88
2022-09-27T12:02:20.845Z,96135.56
2022-09-27T12:05:16.252Z,96127.91
2022-09-27T12:08:22.428Z,96134.22
2022-09-27T12:10:58.542Z,96124.13
2022-09-27T12:13:38.510Z,96124.81
2022-09-27T12:16:06.472Z,96128.06
2022-09-27T12:18:41.138Z,96125.91
2022-09-27T12:21:10.951Z,96120.00
2022-09-27T12:23:57.695Z,96128.28
2022-09-27T12:26:42.326Z,96123.41
2022-09-27T12:29:18.541Z,96131.78
2022-09-27T12:32:05.950Z,96129.03
2022-09-27T12:35:17.852Z,96132.44
2022-09-27T12:37:53.806Z,96120.56
2022-09-27T12:40:26.382Z,96122.03
2022-09-27T12:43:16.378Z,96114.53
2022-09-27T12:46:03.125Z,96123.44
2022-09-27T12:49:16.175Z,96116.44
2022-09-27T12:52:00.164Z,96116.34
2022-09-27T12:55:03.556Z,96113.34
2022-09-27T12:57:52.149Z,96105.19
2022-09-27T13:00:25.052Z,96107.47
2022-09-27T13:03:32.360Z,96106.03
2022-09-27T13:06:35.638Z,96103.94
2022-09-27T13:09:45.156Z,96103.53
2022-09-27T13:12:19.409Z,96102.75
2022-09-27T13:15:17.320Z,96106.03
2022-09-27T13:17:44.713Z,96101.53
2022-09-27T13:20:36.312Z,96103.94
2022-09-27T13:23:19.473Z,96093.75
2022-09-27T13:25:56.700Z,96099.34
2022-09-27T13:28:31.481Z,96122.16
2022-09-27T13:31:03.573Z,96103.56
2022-09-27T13:33:45.106Z,96112.00
2022-09-27T13:36:30.355Z,96116.13
2022-09-27T13:39:10.403Z,96104.91
2022-09-27T13:41:49.032Z,96112.31
2022-09-27T13:45:01.257Z,96114.53
2022-09-27T13:47:44.041Z,96112.72
2022-09-27T13:50:20.906Z,96116.84
2022-09-27T13:53:36.711Z,96114.25
2022-09-27T13:56:04.830Z,96120.31
2022-09-27T13:58:50.308Z,96121.00
2022-09-27T14:01:28.443Z,96124.31
2022-09-27T14:04:05.132Z,96129.25
2022-09-27T14:06:43.758Z,96115.22
2022-09-27T14:09:29.170Z,96125.13
2022-09-27T14:12:00.708Z,96133.81
2022-09-27T14:14:33.362Z,96135.84
2022-09-27T14:17:01.497Z,96129.34
2022-09-27T14:19:29.553Z,96133.28
2022-09-27T14:21:57.565Z,96130.56
2022-09-27T14:24:42.990Z,96119.34
2022-09-27T14:27:39.515Z,96135.81
2022-09-27T14:30:21.208Z,96117.41
2022-09-27T14:32:55.281Z,96103.91
2022-09-27T14:35:44.445Z,96113.19
2022-09-27T14:38:37.551Z,96099.38
2022-09-27T14:41:08.252Z,96115.47
2022-09-27T14:43:43.157Z,96113.69
2022-09-27T14:46:31.918Z,96115.81
2022-09-27T14:48:59.532Z,96118.38
2022-09-27T14:51:32.789Z,96122.25
2022-09-27T14:54:03.238Z,96115.50
2022-09-27T14:56:38.269Z,96125.50
2022-09-27T14:59:14.673Z,96130.63
2022-09-27T15:01:50.449Z,96132.63
2022-09-27T15:04:19.419Z,96138.84
2022-09-27T15:06:48.198Z,96125.22
2022-09-27T15:09:18.084Z,96131.16
2022-09-27T15:11:51.372Z,96130.22
2022-09-27T15:14:20.501Z,96121.78
2022-09-27T15:16:50.599Z,96124.06
2022-09-27T15:19:26.754Z,96125.53
2022-09-27T15:21:54.749Z,96132.25
2022-09-27T15:24:46.090Z,96125.09
2022-09-27T15:27:17.215Z,96120.34
2022-09-27T15:29:54.622Z,96122.28
2022-09-27T15:32:28.390Z,96114.44
2022-09-27T15:34:57.493Z,96122.63
2022-09-27T15:37:28.169Z,96126.25
2022-09-27T15:39:55.045Z,96126.66
2022-09-27T15:42:22.086Z,96126.09
2022-09-27T15:44:51.103Z,96126.31
2022-09-27T15:47:34.323Z,96125.03
2022-09-27T15:50:16.399Z,96124.22
2022-09-27T15:52:51.118Z,96134.34
2022-09-27T15:55:25.475Z,96126.88
2022-09-27T15:58:12.145Z,96119.38
2022-09-27T16:00:52.801Z,96130.47
2022-09-27T16:03:19.961Z,96123.28
2022-09-27T16:05:46.670Z,96129.34
2022-09-27T16:08:13.762Z,96129.63
2022-09-27T16:10:46.615Z,96123.47
2022-09-27T16:13:13.325Z,96129.97
2022-09-27T16:15:41.029Z,96142.50
2022-09-27T16:18:07.736Z,96136.97
2022-09-27T16:20:34.526Z,96137.78
2022-09-27T16:23:02.003Z,96136.44
2022-09-27T16:25:28.792Z,96137.56
2022-09-27T16:28:00.446Z,96142.59
2022-09-27T16:30:27.748Z,96142.75
2022-09-27T16:32:54.557Z,96148.94
2022-09-27T16:35:23.820Z,96150.56
2022-09-27T16:37:50.796Z,96149.22
2022-09-27T16:40:18.497Z,96155.56
2022-09-27T16:42:48.900Z,96156.53
2022-09-27T16:45:19.172Z,96145.00
2022-09-27T16:47:47.097Z,96140.09
2022-09-27T16:50:33.748Z,96142.69
2022-09-27T16:53:00.535Z,96144.47
2022-09-27T16:55:28.563Z,96155.34
2022-09-27T16:57:59.049Z,96152.44
2022-09-27T17:00:26.568Z,96148.50
2022-09-27T17:02:53.804Z,96147.03
2022-09-27T17:05:22.644Z,96150.41
2022-09-27T17:07:53.308Z,96148.94
2022-09-27T17:10:22.528Z,96147.63
2022-09-27T17:12:49.682Z,96159.81
2022-09-27T17:15:17.325Z,96159.00
2022-09-27T17:17:45.173Z,96153.59
2022-09-27T17:20:12.597Z,96156.66
2022-09-27T17:22:39.345Z,96155.34
2022-09-27T17:25:06.701Z,96156.78
2022-09-27T17:27:33.525Z,96155.31
2022-09-27T17:30:00.227Z,96162.59
2022-09-27T17:32:27.499Z,96155.47
2022-09-27T17:34:55.815Z,96160.66
2022-09-27T17:37:22.671Z,96161.31
2022-09-27T17:39:49.400Z,96151.56
2022-09-27T17:42:18.738Z,96156.13
2022-09-27T17:44:46.373Z,96163.25
2022-09-27T17:47:31.514Z,96168.94
2022-09-27T17:50:16.982Z,96165.66
2022-09-27T17:52:43.722Z,96171.97
2022-09-27T17:55:10.614Z,96171.63
2022-09-27T17:57:37.290Z,96163.19
2022-09-27T18:00:06.055Z,96173.19
2022-09-27T18:02:32.858Z,96173.50
2022-09-27T18:04:59.649Z,96168.47
2022-09-27T18:07:27.426Z,96165.38
2022-09-27T18:09:54.154Z,96174.94
2022-09-27T18:12:21.647Z,96176.28
2022-09-27T18:14:49.059Z,96174.94
2022-09-27T18:17:16.603Z,96185.34
2022-09-27T18:19:43.286Z,96180.97
2022-09-27T18:22:09.974Z,96184.53
2022-09-27T18:24:36.668Z,96182.69
2022-09-27T18:27:04.137Z,96181.22
2022-09-27T18:29:30.882Z,96187.38
2022-09-27T18:31:57.650Z,96184.13
2022-09-27T18:34:25.108Z,96190.72
2022-09-27T18:36:51.870Z,96189.38
2022-09-27T18:39:19.582Z,96193.94
2022-09-27T18:41:50.597Z,96192.97
2022-09-27T18:44:18.609Z,96194.91
2022-09-27T18:46:46.031Z,96194.91
2022-09-27T18:49:14.576Z,96198.97
2022-09-27T18:51:44.530Z,96197.34
2022-09-27T18:54:19.729Z,96199.78
2022-09-27T18:56:49.401Z,96198.66
2022-09-27T18:59:17.073Z,96195.75
2022-09-27T19:01:47.316Z,96193.97
2022-09-27T19:04:23.832Z,96204.50
2022-09-27T19:06:52.922Z,96202.22
2022-09-27T19:09:20.031Z,96204.16
2022-09-27T19:11:47.115Z,96200.59
2022-09-27T19:14:18.684Z,96211.63
2022-09-27T19:16:47.262Z,96220.41
2022-09-27T19:19:18.908Z,96210.81
2022-09-27T19:21:47.010Z,96212.91
2022-09-27T19:46:22.700Z,96219.84
2022-09-27T19:48:50.634Z,96216.44
2022-09-27T19:51:26.004Z,96210.44
2022-09-27T19:53:54.301Z,96229.00
2022-09-27T19:56:22.145Z,96226.41
2022-09-27T19:58:49.417Z,96220.97
2022-09-27T20:01:25.633Z,96229.53
2022-09-27T20:03:55.727Z,96222.00
2022-09-27T20:06:22.731Z,96230.75
2022-09-27T20:08:50.549Z,96224.38
2022-09-27T20:11:20.526Z,96231.38
2022-09-27T20:13:48.854Z,96223.03
2022-09-27T20:16:22.064Z,96227.72
2022-09-27T20:18:52.028Z,96234.00
2022-09-27T20:21:21.530Z,96230.91
2022-09-27T20:23:54.333Z,96238.69
2022-09-27T20:26:24.308Z,96235.44
2022-09-27T20:28:54.432Z,96234.47
2022-09-27T20:31:33.453Z,96244.53
2022-09-27T20:34:01.052Z,96237.56
2022-09-27T20:36:31.628Z,96242.09
2022-09-27T20:39:05.538Z,96229.84
2022-09-27T20:41:39.453Z,96231.41
2022-09-27T20:44:12.794Z,96226.63
2022-09-27T20:46:43.979Z,96229.03
2022-09-27T20:49:18.536Z,96224.13
2022-09-27T20:51:48.456Z,96232.19
2022-09-27T20:54:15.389Z,96226.31
2022-09-27T20:56:46.231Z,96227.94
2022-09-27T20:59:22.346Z,96230.53
2022-09-27T21:01:51.822Z,96228.09
2022-09-27T21:04:21.234Z,96224.41
2022-09-27T21:06:47.980Z,96231.75
2022-09-27T21:09:18.971Z,96228.56
2022-09-27T21:11:48.647Z,96238.50
2022-09-27T21:14:16.086Z,96229.22
2022-09-27T21:16:42.993Z,96221.91
2022-09-27T21:19:10.045Z,96221.66
2022-09-27T21:21:36.970Z,96224.03
2022-09-27T21:24:03.995Z,96216.81
2022-09-27T21:26:33.138Z,96227.47
2022-09-27T21:29:05.028Z,96222.88
2022-09-27T21:31:33.063Z,96222.63
2022-09-27T21:34:03.930Z,96219.38
2022-09-27T21:36:37.171Z,96218.41
2022-09-27T21:39:06.476Z,96218.69
2022-09-27T21:41:33.207Z,96211.75
2022-09-27T21:44:04.373Z,96215.16
2022-09-27T21:46:31.912Z,96223.06
2022-09-27T21:49:03.790Z,96231.13
2022-09-27T21:51:38.608Z,96214.22
2022-09-27T21:54:09.986Z,96216.56
2022-09-27T21:56:39.756Z,96205.88
2022-09-27T21:59:10.478Z,96200.56
2022-09-27T22:01:37.856Z,96201.38
2022-09-27T22:04:06.700Z,96203.31
2022-09-27T22:06:37.473Z,96207.16
2022-09-27T22:09:07.544Z,96210.28
2022-09-27T22:11:43.843Z,96213.19
2022-09-27T22:14:12.971Z,96195.03
2022-09-27T22:16:39.921Z,96203.19
2022-09-27T22:19:07.500Z,96202.53
2022-09-27T22:21:37.999Z,96204.44
2022-09-27T22:24:10.418Z,96205.00
2022-09-27T22:26:40.467Z,96213.72
2022-09-27T22:29:08.368Z,96211.13
2022-09-27T22:31:36.816Z,96218.53
2022-09-27T22:34:06.982Z,96222.38
2022-09-27T22:36:34.632Z,96210.94
2022-09-27T22:39:01.342Z,96208.94
2022-09-27T22:41:30.314Z,96207.41
2022-09-27T22:43:57.282Z,96207.84
2022-09-27T22:46:24.229Z,96206.50
2022-09-27T22:48:51.013Z,96206.78
2022-09-27T22:51:18.850Z,96215.63
2022-09-27T22:53:45.569Z,96208.97
2022-09-27T22:56:16.955Z,96202.16
2022-09-27T22:58:44.920Z,96210.34
2022-09-27T23:01:20.548Z,96204.91
2022-09-27T23:03:50.024Z,96205.19
2022-09-27T23:06:19.133Z,96213.91
2022-09-27T23:08:47.245Z,96214.19
2022-09-27T23:11:18.442Z,96208.44
2022-09-27T23:13:46.325Z,96211.59
2022-09-27T23:16:16.890Z,96217.19
2022-09-27T23:18:44.425Z,96209.69
2022-09-27T23:21:14.202Z,96207.09
2022-09-27T23:23:44.838Z,96200.00
2022-09-27T23:26:15.173Z,96204.09
2022-09-27T23:28:43.022Z,96194.28
2022-09-27T23:31:13.679Z,96191.13
2022-09-27T23:33:47.379Z,96180.25
2022-09-27T23:36:16.975Z,96176.56
2022-09-27T23:38:45.834Z,96183.66
2022-09-27T23:41:15.065Z,96180.09
2022-09-27T23:43:42.210Z,96181.72
2022-09-27T23:46:10.246Z,96167.97
2022-09-27T23:48:38.054Z,96173.97
2022-09-27T23:51:08.537Z,96160.34
2022-09-27T23:53:35.582Z,96159.38
2022-09-27T23:56:08.076Z,96147.13
2022-09-27T23:58:41.013Z,96138.38
